sensor_id;sensor_type;location;lat;lon;timestamp;P1;durP1;ratioP1;P2;durP2;ratioP2
20000;SDS011;10161;41.188;-8.642;2022-12-10T00:01:31;29.50;;;23.30;;
20000;SDS011;10161;41.188;-8.642;2022-12-10T00:03:59;25.27;;;21.90;;
20000;SDS011;10161;41.188;-8.642;2022-12-10T00:06:29;26.47;;;21.93;;
20000;SDS011;10161;41.188;-8.642;2022-12-10T00:08:56;25.73;;;22.50;;
20000;SDS011;10161;41.188;-8.642;2022-12-10T00:11:23;27.40;;;23.70;;
20000;SDS011;10161;41.188;-8.642;2022-12-10T00:13:51;29.13;;;22.93;;
20000;SDS011;10161;41.188;-8.642;2022-12-10T00:16:20;28.53;;;23.83;;
20000;SDS011;10161;41.188;-8.642;2022-12-10T00:18:48;27.90;;;22.80;;
20000;SDS011;10161;41.188;-8.642;2022-12-10T00:21:17;24.67;;;22.00;;
20000;SDS011;10161;41.188;-8.642;2022-12-10T00:23:47;26.90;;;24.10;;
20000;SDS011;10161;41.188;-8.642;2022-12-10T00:26:15;26.20;;;22.30;;
20000;SDS011;10161;41.188;-8.642;2022-12-10T00:28:44;26.33;;;21.67;;
20000;SDS011;10161;41.188;-8.642;2022-12-10T00:31:12;25.97;;;21.10;;
20000;SDS011;10161;41.188;-8.642;2022-12-10T00:33:40;23.53;;;21.03;;
20000;SDS011;10161;41.188;-8.642;2022-12-10T00:36:09;25.90;;;21.70;;
20000;SDS011;10161;41.188;-8.642;2022-12-10T00:38:37;25.33;;;22.63;;
20000;SDS011;10161;41.188;-8.642;2022-12-10T00:41:06;25.17;;;21.60;;
20000;SDS011;10161;41.188;-8.642;2022-12-10T00:43:33;23.83;;;20.70;;
20000;SDS011;10161;41.188;-8.642;2022-12-10T00:46:00;23.00;;;20.60;;
20000;SDS011;10161;41.188;-8.642;2022-12-10T00:48:27;24.80;;;20.00;;
20000;SDS011;10161;41.188;-8.642;2022-12-10T00:50:55;26.40;;;21.70;;
20000;SDS011;10161;41.188;-8.642;2022-12-10T00:53:23;24.47;;;21.23;;
20000;SDS011;10161;41.188;-8.642;2022-12-10T00:55:50;24.33;;;21.80;;
20000;SDS011;10161;41.188;-8.642;2022-12-10T00:58:18;25.27;;;22.03;;
20000;SDS011;10161;41.188;-8.642;2022-12-10T01:00:45;26.23;;;21.03;;
20000;SDS011;10161;41.188;-8.642;2022-12-10T01:03:13;25.67;;;20.70;;
20000;SDS011;10161;41.188;-8.642;2022-12-10T01:05:40;27.60;;;23.50;;
20000;SDS011;10161;41.188;-8.642;2022-12-10T01:08:07;27.83;;;23.20;;
20000;SDS011;10161;41.188;-8.642;2022-12-10T01:10:34;27.17;;;22.00;;
20000;SDS011;10161;41.188;-8.642;2022-12-10T01:13:01;24.20;;;20.37;;
20000;SDS011;10161;41.188;-8.642;2022-12-10T01:15:29;26.63;;;21.90;;
20000;SDS011;10161;41.188;-8.642;2022-12-10T01:17:56;20.50;;;18.30;;
20000;SDS011;10161;41.188;-8.642;2022-12-10T01:20:23;21.57;;;15.70;;
20000;SDS011;10161;41.188;-8.642;2022-12-10T01:22:50;16.80;;;12.93;;
20000;SDS011;10161;41.188;-8.642;2022-12-10T01:25:17;15.23;;;13.63;;
20000;SDS011;10161;41.188;-8.642;2022-12-10T01:27:43;16.90;;;14.60;;
20000;SDS011;10161;41.188;-8.642;2022-12-10T01:30:11;16.83;;;14.53;;
20000;SDS011;10161;41.188;-8.642;2022-12-10T01:32:39;15.97;;;13.40;;
20000;SDS011;10161;41.188;-8.642;2022-12-10T01:35:07;17.53;;;14.40;;
20000;SDS011;10161;41.188;-8.642;2022-12-10T01:37:34;14.13;;;12.57;;
20000;SDS011;10161;41.188;-8.642;2022-12-10T01:40:01;11.83;;;10.63;;
20000;SDS011;10161;41.188;-8.642;2022-12-10T01:42:28;11.73;;;10.33;;
20000;SDS011;10161;41.188;-8.642;2022-12-10T01:45:00;12.37;;;11.07;;
20000;SDS011;10161;41.188;-8.642;2022-12-10T01:47:31;12.80;;;10.30;;
20000;SDS011;10161;41.188;-8.642;2022-12-10T01:49:59;11.63;;;10.03;;
20000;SDS011;10161;41.188;-8.642;2022-12-10T01:52:27;13.03;;;10.47;;
20000;SDS011;10161;41.188;-8.642;2022-12-10T01:54:54;10.90;;;9.73;;
20000;SDS011;10161;41.188;-8.642;2022-12-10T01:57:22;10.73;;;9.63;;
20000;SDS011;10161;41.188;-8.642;2022-12-10T01:59:50;11.10;;;10.00;;
20000;SDS011;10161;41.188;-8.642;2022-12-10T02:02:21;11.40;;;10.20;;
20000;SDS011;10161;41.188;-8.642;2022-12-10T02:04:54;11.23;;;9.50;;
20000;SDS011;10161;41.188;-8.642;2022-12-10T02:07:32;12.30;;;10.90;;
20000;SDS011;10161;41.188;-8.642;2022-12-10T02:10:07;12.97;;;10.93;;
20000;SDS011;10161;41.188;-8.642;2022-12-10T02:12:39;11.17;;;10.00;;
20000;SDS011;10161;41.188;-8.642;2022-12-10T02:15:12;12.20;;;10.90;;
20000;SDS011;10161;41.188;-8.642;2022-12-10T02:17:42;11.87;;;10.40;;
20000;SDS011;10161;41.188;-8.642;2022-12-10T02:20:14;11.83;;;10.63;;
20000;SDS011;10161;41.188;-8.642;2022-12-10T02:22:44;13.77;;;12.33;;
20000;SDS011;10161;41.188;-8.642;2022-12-10T02:25:13;12.57;;;11.20;;
20000;SDS011;10161;41.188;-8.642;2022-12-10T02:27:42;14.17;;;12.67;;
20000;SDS011;10161;41.188;-8.642;2022-12-10T02:30:14;15.27;;;13.07;;
20000;SDS011;10161;41.188;-8.642;2022-12-10T02:32:42;15.07;;;13.57;;
20000;SDS011;10161;41.188;-8.642;2022-12-10T02:35:10;16.00;;;14.13;;
20000;SDS011;10161;41.188;-8.642;2022-12-10T02:37:39;16.53;;;14.90;;
20000;SDS011;10161;41.188;-8.642;2022-12-10T02:40:13;17.90;;;15.97;;
20000;SDS011;10161;41.188;-8.642;2022-12-10T02:42:44;15.87;;;14.27;;
20000;SDS011;10161;41.188;-8.642;2022-12-10T02:45:15;20.43;;;15.30;;
20000;SDS011;10161;41.188;-8.642;2022-12-10T02:47:43;16.37;;;14.77;;
20000;SDS011;10161;41.188;-8.642;2022-12-10T02:50:10;19.00;;;15.20;;
20000;SDS011;10161;41.188;-8.642;2022-12-10T02:52:39;15.00;;;13.50;;
20000;SDS011;10161;41.188;-8.642;2022-12-10T02:55:08;17.57;;;14.50;;
20000;SDS011;10161;41.188;-8.642;2022-12-10T02:57:38;16.07;;;14.23;;
20000;SDS011;10161;41.188;-8.642;2022-12-10T03:00:10;15.93;;;14.23;;
20000;SDS011;10161;41.188;-8.642;2022-12-10T03:02:59;17.47;;;14.60;;
20000;SDS011;10161;41.188;-8.642;2022-12-10T03:05:38;16.40;;;14.00;;
20000;SDS011;10161;41.188;-8.642;2022-12-10T03:08:09;15.77;;;14.07;;
20000;SDS011;10161;41.188;-8.642;2022-12-10T03:10:41;19.53;;;15.47;;
20000;SDS011;10161;41.188;-8.642;2022-12-10T03:13:12;17.73;;;15.80;;
20000;SDS011;10161;41.188;-8.642;2022-12-10T03:15:40;16.20;;;14.50;;
20000;SDS011;10161;41.188;-8.642;2022-12-10T03:18:10;20.10;;;16.10;;
20000;SDS011;10161;41.188;-8.642;2022-12-10T03:20:38;18.97;;;16.90;;
20000;SDS011;10161;41.188;-8.642;2022-12-10T03:23:07;16.43;;;14.73;;
20000;SDS011;10161;41.188;-8.642;2022-12-10T03:25:36;18.00;;;15.60;;
20000;SDS011;10161;41.188;-8.642;2022-12-10T03:28:04;16.90;;;14.93;;
20000;SDS011;10161;41.188;-8.642;2022-12-10T03:30:32;17.53;;;14.23;;
20000;SDS011;10161;41.188;-8.642;2022-12-10T03:32:59;16.83;;;15.00;;
20000;SDS011;10161;41.188;-8.642;2022-12-10T03:35:28;15.77;;;13.57;;
20000;SDS011;10161;41.188;-8.642;2022-12-10T03:37:55;13.27;;;11.90;;
20000;SDS011;10161;41.188;-8.642;2022-12-10T03:40:23;15.10;;;13.60;;
20000;SDS011;10161;41.188;-8.642;2022-12-10T03:42:50;14.43;;;12.90;;
20000;SDS011;10161;41.188;-8.642;2022-12-10T03:45:17;15.27;;;12.70;;
20000;SDS011;10161;41.188;-8.642;2022-12-10T03:47:44;13.90;;;12.40;;
20000;SDS011;10161;41.188;-8.642;2022-12-10T03:50:11;13.60;;;11.93;;
20000;SDS011;10161;41.188;-8.642;2022-12-10T03:52:40;14.87;;;12.87;;
20000;SDS011;10161;41.188;-8.642;2022-12-10T03:55:07;15.33;;;12.53;;
20000;SDS011;10161;41.188;-8.642;2022-12-10T03:57:35;14.27;;;11.73;;
20000;SDS011;10161;41.188;-8.642;2022-12-10T04:00:03;14.23;;;11.73;;
20000;SDS011;10161;41.188;-8.642;2022-12-10T04:02:31;12.77;;;11.47;;
20000;SDS011;10161;41.188;-8.642;2022-12-10T04:04:57;10.67;;;9.60;;
20000;SDS011;10161;41.188;-8.642;2022-12-10T04:07:24;10.17;;;9.20;;
20000;SDS011;10161;41.188;-8.642;2022-12-10T04:09:53;10.60;;;9.50;;
20000;SDS011;10161;41.188;-8.642;2022-12-10T04:12:20;8.97;;;8.03;;
20000;SDS011;10161;41.188;-8.642;2022-12-10T04:14:47;10.33;;;8.43;;
20000;SDS011;10161;41.188;-8.642;2022-12-10T04:17:31;8.30;;;7.50;;
20000;SDS011;10161;41.188;-8.642;2022-12-10T04:19:59;8.70;;;7.80;;
20000;SDS011;10161;41.188;-8.642;2022-12-10T04:22:26;8.10;;;7.30;;
20000;SDS011;10161;41.188;-8.642;2022-12-10T04:25:12;8.17;;;7.00;;
20000;SDS011;10161;41.188;-8.642;2022-12-10T04:27:56;9.07;;;6.90;;
20000;SDS011;10161;41.188;-8.642;2022-12-10T04:30:23;8.90;;;7.20;;
20000;SDS011;10161;41.188;-8.642;2022-12-10T04:32:50;7.73;;;6.97;;
20000;SDS011;10161;41.188;-8.642;2022-12-10T04:35:18;7.00;;;6.00;;
20000;SDS011;10161;41.188;-8.642;2022-12-10T04:37:44;5.80;;;5.03;;
20000;SDS011;10161;41.188;-8.642;2022-12-10T04:40:13;7.33;;;6.30;;
20000;SDS011;10161;41.188;-8.642;2022-12-10T04:42:40;7.90;;;6.70;;
20000;SDS011;10161;41.188;-8.642;2022-12-10T04:45:07;7.50;;;6.73;;
20000;SDS011;10161;41.188;-8.642;2022-12-10T04:47:34;7.00;;;6.30;;
20000;SDS011;10161;41.188;-8.642;2022-12-10T04:50:01;8.40;;;6.20;;
20000;SDS011;10161;41.188;-8.642;2022-12-10T04:52:29;7.33;;;5.83;;
20000;SDS011;10161;41.188;-8.642;2022-12-10T04:54:56;6.10;;;5.50;;
20000;SDS011;10161;41.188;-8.642;2022-12-10T04:57:24;6.10;;;5.60;;
20000;SDS011;10161;41.188;-8.642;2022-12-10T04:59:51;9.20;;;5.57;;
20000;SDS011;10161;41.188;-8.642;2022-12-10T05:02:18;6.73;;;5.30;;
20000;SDS011;10161;41.188;-8.642;2022-12-10T05:04:45;8.37;;;5.20;;
20000;SDS011;10161;41.188;-8.642;2022-12-10T05:07:12;5.40;;;4.90;;
20000;SDS011;10161;41.188;-8.642;2022-12-10T05:09:39;5.17;;;4.67;;
20000;SDS011;10161;41.188;-8.642;2022-12-10T05:12:06;5.67;;;5.17;;
20000;SDS011;10161;41.188;-8.642;2022-12-10T05:14:34;6.70;;;6.00;;
20000;SDS011;10161;41.188;-8.642;2022-12-10T05:17:01;6.70;;;6.10;;
20000;SDS011;10161;41.188;-8.642;2022-12-10T05:19:28;6.93;;;6.27;;
20000;SDS011;10161;41.188;-8.642;2022-12-10T05:21:55;7.73;;;6.50;;
20000;SDS011;10161;41.188;-8.642;2022-12-10T05:24:39;7.40;;;6.70;;
20000;SDS011;10161;41.188;-8.642;2022-12-10T05:27:06;8.30;;;7.57;;
20000;SDS011;10161;41.188;-8.642;2022-12-10T05:29:35;8.20;;;7.30;;
20000;SDS011;10161;41.188;-8.642;2022-12-10T05:32:02;7.43;;;6.73;;
20000;SDS011;10161;41.188;-8.642;2022-12-10T05:34:30;7.20;;;6.40;;
20000;SDS011;10161;41.188;-8.642;2022-12-10T05:36:57;7.57;;;6.30;;
20000;SDS011;10161;41.188;-8.642;2022-12-10T05:39:24;7.20;;;6.50;;
20000;SDS011;10161;41.188;-8.642;2022-12-10T05:41:51;7.07;;;6.37;;
20000;SDS011;10161;41.188;-8.642;2022-12-10T05:44:18;7.80;;;7.00;;
20000;SDS011;10161;41.188;-8.642;2022-12-10T05:46:46;7.40;;;6.60;;
20000;SDS011;10161;41.188;-8.642;2022-12-10T05:49:13;7.73;;;6.20;;
20000;SDS011;10161;41.188;-8.642;2022-12-10T05:51:40;7.03;;;6.27;;
20000;SDS011;10161;41.188;-8.642;2022-12-10T05:54:07;8.50;;;7.70;;
20000;SDS011;10161;41.188;-8.642;2022-12-10T05:56:35;9.60;;;6.20;;
20000;SDS011;10161;41.188;-8.642;2022-12-10T05:59:03;8.90;;;7.87;;
20000;SDS011;10161;41.188;-8.642;2022-12-10T06:01:31;9.30;;;8.13;;
20000;SDS011;10161;41.188;-8.642;2022-12-10T06:04:01;9.63;;;8.73;;
20000;SDS011;10161;41.188;-8.642;2022-12-10T06:06:30;9.30;;;8.40;;
20000;SDS011;10161;41.188;-8.642;2022-12-10T06:08:57;9.17;;;8.27;;
20000;SDS011;10161;41.188;-8.642;2022-12-10T06:11:24;10.13;;;8.40;;
20000;SDS011;10161;41.188;-8.642;2022-12-10T06:13:52;9.83;;;8.83;;
20000;SDS011;10161;41.188;-8.642;2022-12-10T06:16:19;10.60;;;9.50;;
20000;SDS011;10161;41.188;-8.642;2022-12-10T06:18:46;10.47;;;9.50;;
20000;SDS011;10161;41.188;-8.642;2022-12-10T06:21:15;10.97;;;9.73;;
20000;SDS011;10161;41.188;-8.642;2022-12-10T06:23:42;9.93;;;9.03;;
20000;SDS011;10161;41.188;-8.642;2022-12-10T06:26:11;10.33;;;8.10;;
20000;SDS011;10161;41.188;-8.642;2022-12-10T06:28:38;10.00;;;9.00;;
20000;SDS011;10161;41.188;-8.642;2022-12-10T06:31:05;10.07;;;9.00;;
20000;SDS011;10161;41.188;-8.642;2022-12-10T06:33:33;11.03;;;9.37;;
20000;SDS011;10161;41.188;-8.642;2022-12-10T06:36:02;11.07;;;8.50;;
20000;SDS011;10161;41.188;-8.642;2022-12-10T06:38:32;10.20;;;9.30;;
20000;SDS011;10161;41.188;-8.642;2022-12-10T06:40:59;9.87;;;8.97;;
20000;SDS011;10161;41.188;-8.642;2022-12-10T06:43:28;11.30;;;9.70;;
20000;SDS011;10161;41.188;-8.642;2022-12-10T06:45:55;10.90;;;9.80;;
20000;SDS011;10161;41.188;-8.642;2022-12-10T06:48:22;12.90;;;10.37;;
20000;SDS011;10161;41.188;-8.642;2022-12-10T06:50:49;11.23;;;9.90;;
20000;SDS011;10161;41.188;-8.642;2022-12-10T06:53:16;14.30;;;12.40;;
20000;SDS011;10161;41.188;-8.642;2022-12-10T06:55:44;17.33;;;13.07;;
20000;SDS011;10161;41.188;-8.642;2022-12-10T06:58:11;16.43;;;13.57;;
20000;SDS011;10161;41.188;-8.642;2022-12-10T07:00:38;17.50;;;15.70;;
20000;SDS011;10161;41.188;-8.642;2022-12-10T07:03:05;21.17;;;17.00;;
20000;SDS011;10161;41.188;-8.642;2022-12-10T07:05:32;27.07;;;20.80;;
20000;SDS011;10161;41.188;-8.642;2022-12-10T07:07:59;34.40;;;24.27;;
20000;SDS011;10161;41.188;-8.642;2022-12-10T07:10:26;36.53;;;27.53;;
20000;SDS011;10161;41.188;-8.642;2022-12-10T07:12:54;38.77;;;27.17;;
20000;SDS011;10161;41.188;-8.642;2022-12-10T07:15:21;34.43;;;27.37;;
20000;SDS011;10161;41.188;-8.642;2022-12-10T07:17:50;37.47;;;30.23;;
20000;SDS011;10161;41.188;-8.642;2022-12-10T07:20:17;35.80;;;28.97;;
20000;SDS011;10161;41.188;-8.642;2022-12-10T07:22:44;40.27;;;29.80;;
20000;SDS011;10161;41.188;-8.642;2022-12-10T07:25:11;36.53;;;26.90;;
20000;SDS011;10161;41.188;-8.642;2022-12-10T07:27:38;36.83;;;28.17;;
20000;SDS011;10161;41.188;-8.642;2022-12-10T07:30:07;35.00;;;27.30;;
20000;SDS011;10161;41.188;-8.642;2022-12-10T07:32:35;35.03;;;28.70;;
20000;SDS011;10161;41.188;-8.642;2022-12-10T07:35:02;41.47;;;31.60;;
20000;SDS011;10161;41.188;-8.642;2022-12-10T07:37:29;38.53;;;30.60;;
20000;SDS011;10161;41.188;-8.642;2022-12-10T07:39:56;38.67;;;28.30;;
20000;SDS011;10161;41.188;-8.642;2022-12-10T07:42:23;31.23;;;25.00;;
20000;SDS011;10161;41.188;-8.642;2022-12-10T07:44:50;31.10;;;23.90;;
20000;SDS011;10161;41.188;-8.642;2022-12-10T07:47:19;31.00;;;23.60;;
20000;SDS011;10161;41.188;-8.642;2022-12-10T07:49:46;28.60;;;23.20;;
20000;SDS011;10161;41.188;-8.642;2022-12-10T07:52:13;25.90;;;21.40;;
20000;SDS011;10161;41.188;-8.642;2022-12-10T07:54:39;25.57;;;21.10;;
20000;SDS011;10161;41.188;-8.642;2022-12-10T07:57:06;24.13;;;20.63;;
20000;SDS011;10161;41.188;-8.642;2022-12-10T07:59:33;26.00;;;20.57;;
20000;SDS011;10161;41.188;-8.642;2022-12-10T08:02:00;28.27;;;20.70;;
20000;SDS011;10161;41.188;-8.642;2022-12-10T08:04:29;27.23;;;19.43;;
20000;SDS011;10161;41.188;-8.642;2022-12-10T08:06:56;20.60;;;17.43;;
20000;SDS011;10161;41.188;-8.642;2022-12-10T08:09:23;20.40;;;17.20;;
20000;SDS011;10161;41.188;-8.642;2022-12-10T08:11:50;21.30;;;17.53;;
20000;SDS011;10161;41.188;-8.642;2022-12-10T08:14:17;26.10;;;19.13;;
20000;SDS011;10161;41.188;-8.642;2022-12-10T08:16:44;23.33;;;17.50;;
20000;SDS011;10161;41.188;-8.642;2022-12-10T08:19:11;17.00;;;15.20;;
20000;SDS011;10161;41.188;-8.642;2022-12-10T08:21:39;16.83;;;14.50;;
20000;SDS011;10161;41.188;-8.642;2022-12-10T08:24:06;15.90;;;13.40;;
20000;SDS011;10161;41.188;-8.642;2022-12-10T08:26:33;13.17;;;11.80;;
20000;SDS011;10161;41.188;-8.642;2022-12-10T08:29:00;13.73;;;11.60;;
20000;SDS011;10161;41.188;-8.642;2022-12-10T08:31:28;12.80;;;11.17;;
20000;SDS011;10161;41.188;-8.642;2022-12-10T08:33:55;11.03;;;9.83;;
20000;SDS011;10161;41.188;-8.642;2022-12-10T08:36:22;10.23;;;9.17;;
20000;SDS011;10161;41.188;-8.642;2022-12-10T08:38:50;11.17;;;10.07;;
20000;SDS011;10161;41.188;-8.642;2022-12-10T08:41:18;11.23;;;9.77;;
20000;SDS011;10161;41.188;-8.642;2022-12-10T08:43:47;13.30;;;10.40;;
20000;SDS011;10161;41.188;-8.642;2022-12-10T08:46:14;10.47;;;9.37;;
20000;SDS011;10161;41.188;-8.642;2022-12-10T08:48:41;11.30;;;10.10;;
20000;SDS011;10161;41.188;-8.642;2022-12-10T08:51:09;10.60;;;9.50;;
20000;SDS011;10161;41.188;-8.642;2022-12-10T08:53:37;12.97;;;9.83;;
20000;SDS011;10161;41.188;-8.642;2022-12-10T08:56:06;12.30;;;11.00;;
20000;SDS011;10161;41.188;-8.642;2022-12-10T08:58:33;14.20;;;11.63;;
20000;SDS011;10161;41.188;-8.642;2022-12-10T09:01:00;12.33;;;11.13;;
20000;SDS011;10161;41.188;-8.642;2022-12-10T09:03:32;11.90;;;10.70;;
20000;SDS011;10161;41.188;-8.642;2022-12-10T09:06:01;10.37;;;9.40;;
20000;SDS011;10161;41.188;-8.642;2022-12-10T09:08:29;9.67;;;8.77;;
20000;SDS011;10161;41.188;-8.642;2022-12-10T09:10:56;9.63;;;8.73;;
20000;SDS011;10161;41.188;-8.642;2022-12-10T09:13:24;11.87;;;10.67;;
20000;SDS011;10161;41.188;-8.642;2022-12-10T09:15:51;11.13;;;10.13;;
20000;SDS011;10161;41.188;-8.642;2022-12-10T09:18:19;11.00;;;9.90;;
20000;SDS011;10161;41.188;-8.642;2022-12-10T09:20:46;10.70;;;9.70;;
20000;SDS011;10161;41.188;-8.642;2022-12-10T09:23:13;9.67;;;8.73;;
20000;SDS011;10161;41.188;-8.642;2022-12-10T09:25:40;9.07;;;8.23;;
20000;SDS011;10161;41.188;-8.642;2022-12-10T09:28:07;8.67;;;7.77;;
20000;SDS011;10161;41.188;-8.642;2022-12-10T09:30:35;7.90;;;7.20;;
20000;SDS011;10161;41.188;-8.642;2022-12-10T09:33:02;7.20;;;6.60;;
20000;SDS011;10161;41.188;-8.642;2022-12-10T09:35:29;7.40;;;6.60;;
20000;SDS011;10161;41.188;-8.642;2022-12-10T09:37:56;9.23;;;8.20;;
20000;SDS011;10161;41.188;-8.642;2022-12-10T09:40:25;9.30;;;8.40;;
20000;SDS011;10161;41.188;-8.642;2022-12-10T09:42:57;8.97;;;7.87;;
20000;SDS011;10161;41.188;-8.642;2022-12-10T09:45:30;8.10;;;7.30;;
20000;SDS011;10161;41.188;-8.642;2022-12-10T09:48:03;11.30;;;7.73;;
20000;SDS011;10161;41.188;-8.642;2022-12-10T09:50:40;7.87;;;7.10;;
20000;SDS011;10161;41.188;-8.642;2022-12-10T09:53:12;7.97;;;6.80;;
20000;SDS011;10161;41.188;-8.642;2022-12-10T09:55:43;7.77;;;7.07;;
20000;SDS011;10161;41.188;-8.642;2022-12-10T09:58:13;7.43;;;6.57;;
20000;SDS011;10161;41.188;-8.642;2022-12-10T10:00:42;8.00;;;6.13;;
20000;SDS011;10161;41.188;-8.642;2022-12-10T10:03:13;6.90;;;5.93;;
20000;SDS011;10161;41.188;-8.642;2022-12-10T10:05:41;8.53;;;5.50;;
20000;SDS011;10161;41.188;-8.642;2022-12-10T10:08:12;8.73;;;5.37;;
20000;SDS011;10161;41.188;-8.642;2022-12-10T10:10:40;7.43;;;6.17;;
20000;SDS011;10161;41.188;-8.642;2022-12-10T10:13:12;9.10;;;6.40;;
20000;SDS011;10161;41.188;-8.642;2022-12-10T10:15:43;8.90;;;8.03;;
20000;SDS011;10161;41.188;-8.642;2022-12-10T10:18:13;10.07;;;6.30;;
20000;SDS011;10161;41.188;-8.642;2022-12-10T10:20:43;9.73;;;5.87;;
20000;SDS011;10161;41.188;-8.642;2022-12-10T10:23:11;7.63;;;5.10;;
20000;SDS011;10161;41.188;-8.642;2022-12-10T10:25:39;7.27;;;3.80;;
20000;SDS011;10161;41.188;-8.642;2022-12-10T10:28:07;11.37;;;3.83;;
20000;SDS011;10161;41.188;-8.642;2022-12-10T10:30:37;4.90;;;3.40;;
20000;SDS011;10161;41.188;-8.642;2022-12-10T10:33:08;6.60;;;3.67;;
20000;SDS011;10161;41.188;-8.642;2022-12-10T10:35:43;4.97;;;3.30;;
20000;SDS011;10161;41.188;-8.642;2022-12-10T10:38:16;3.67;;;2.90;;
20000;SDS011;10161;41.188;-8.642;2022-12-10T10:40:46;13.60;;;6.20;;
20000;SDS011;10161;41.188;-8.642;2022-12-10T10:43:18;6.80;;;3.40;;
20000;SDS011;10161;41.188;-8.642;2022-12-10T10:45:51;9.40;;;6.40;;
20000;SDS011;10161;41.188;-8.642;2022-12-10T10:48:20;3.63;;;2.30;;
20000;SDS011;10161;41.188;-8.642;2022-12-10T10:50:50;4.40;;;2.30;;
20000;SDS011;10161;41.188;-8.642;2022-12-10T10:53:22;3.87;;;2.30;;
20000;SDS011;10161;41.188;-8.642;2022-12-10T10:55:54;6.07;;;2.80;;
20000;SDS011;10161;41.188;-8.642;2022-12-10T10:58:23;5.53;;;2.30;;
20000;SDS011;10161;41.188;-8.642;2022-12-10T11:00:54;4.40;;;2.70;;
20000;SDS011;10161;41.188;-8.642;2022-12-10T11:03:22;10.67;;;5.80;;
20000;SDS011;10161;41.188;-8.642;2022-12-10T11:05:51;6.90;;;5.10;;
20000;SDS011;10161;41.188;-8.642;2022-12-10T11:08:18;7.33;;;3.73;;
20000;SDS011;10161;41.188;-8.642;2022-12-10T11:10:49;4.83;;;3.90;;
20000;SDS011;10161;41.188;-8.642;2022-12-10T11:13:22;5.80;;;3.80;;
20000;SDS011;10161;41.188;-8.642;2022-12-10T11:15:54;7.27;;;3.40;;
20000;SDS011;10161;41.188;-8.642;2022-12-10T11:18:24;3.50;;;2.63;;
20000;SDS011;10161;41.188;-8.642;2022-12-10T11:20:59;5.53;;;2.93;;
20000;SDS011;10161;41.188;-8.642;2022-12-10T11:23:28;9.80;;;3.00;;
20000;SDS011;10161;41.188;-8.642;2022-12-10T11:25:57;7.33;;;2.80;;
20000;SDS011;10161;41.188;-8.642;2022-12-10T11:28:32;5.00;;;2.30;;
20000;SDS011;10161;41.188;-8.642;2022-12-10T11:31:13;3.43;;;1.80;;
20000;SDS011;10161;41.188;-8.642;2022-12-10T11:33:50;5.17;;;2.00;;
20000;SDS011;10161;41.188;-8.642;2022-12-10T11:36:25;3.00;;;2.07;;
20000;SDS011;10161;41.188;-8.642;2022-12-10T11:39:01;4.23;;;2.07;;
20000;SDS011;10161;41.188;-8.642;2022-12-10T11:41:32;1.90;;;1.43;;
20000;SDS011;10161;41.188;-8.642;2022-12-10T11:44:15;3.23;;;1.83;;
20000;SDS011;10161;41.188;-8.642;2022-12-10T11:46:55;2.33;;;1.70;;
20000;SDS011;10161;41.188;-8.642;2022-12-10T11:49:28;5.23;;;1.70;;
20000;SDS011;10161;41.188;-8.642;2022-12-10T11:52:01;2.40;;;1.60;;
20000;SDS011;10161;41.188;-8.642;2022-12-10T11:54:36;2.63;;;1.70;;
20000;SDS011;10161;41.188;-8.642;2022-12-10T11:57:13;2.30;;;1.37;;
20000;SDS011;10161;41.188;-8.642;2022-12-10T11:59:44;6.57;;;1.60;;
20000;SDS011;10161;41.188;-8.642;2022-12-10T12:02:22;1.53;;;1.20;;
20000;SDS011;10161;41.188;-8.642;2022-12-10T12:05:16;4.60;;;2.00;;
20000;SDS011;10161;41.188;-8.642;2022-12-10T12:07:49;3.47;;;1.30;;
20000;SDS011;10161;41.188;-8.642;2022-12-10T12:13:13;3.40;;;1.80;;
20000;SDS011;10161;41.188;-8.642;2022-12-10T12:15:43;6.17;;;2.13;;
20000;SDS011;10161;41.188;-8.642;2022-12-10T12:18:15;3.73;;;1.77;;
20000;SDS011;10161;41.188;-8.642;2022-12-10T12:20:45;4.80;;;1.90;;
20000;SDS011;10161;41.188;-8.642;2022-12-10T12:23:18;3.42;;;1.65;;
20000;SDS011;10161;41.188;-8.642;2022-12-10T12:25:49;4.93;;;2.00;;
20000;SDS011;10161;41.188;-8.642;2022-12-10T12:28:19;3.93;;;1.53;;
20000;SDS011;10161;41.188;-8.642;2022-12-10T12:30:48;2.03;;;1.50;;
20000;SDS011;10161;41.188;-8.642;2022-12-10T12:33:22;1.70;;;1.30;;
20000;SDS011;10161;41.188;-8.642;2022-12-10T12:35:53;5.70;;;1.67;;
20000;SDS011;10161;41.188;-8.642;2022-12-10T12:38:26;4.60;;;1.70;;
20000;SDS011;10161;41.188;-8.642;2022-12-10T12:40:56;2.13;;;1.10;;
20000;SDS011;10161;41.188;-8.642;2022-12-10T12:43:31;2.40;;;1.47;;
20000;SDS011;10161;41.188;-8.642;2022-12-10T12:46:02;3.60;;;1.63;;
20000;SDS011;10161;41.188;-8.642;2022-12-10T12:48:37;4.77;;;1.60;;
20000;SDS011;10161;41.188;-8.642;2022-12-10T12:51:09;2.30;;;1.50;;
20000;SDS011;10161;41.188;-8.642;2022-12-10T12:53:38;2.03;;;1.50;;
20000;SDS011;10161;41.188;-8.642;2022-12-10T12:56:05;3.87;;;2.30;;
20000;SDS011;10161;41.188;-8.642;2022-12-10T12:58:36;2.90;;;1.60;;
20000;SDS011;10161;41.188;-8.642;2022-12-10T13:01:11;1.67;;;1.30;;
20000;SDS011;10161;41.188;-8.642;2022-12-10T13:03:43;5.83;;;1.90;;
20000;SDS011;10161;41.188;-8.642;2022-12-10T13:06:12;2.20;;;1.70;;
20000;SDS011;10161;41.188;-8.642;2022-12-10T13:08:46;4.70;;;1.80;;
20000;SDS011;10161;41.188;-8.642;2022-12-10T13:11:28;2.53;;;1.27;;
20000;SDS011;10161;41.188;-8.642;2022-12-10T13:17:05;3.30;;;2.20;;
20000;SDS011;10161;41.188;-8.642;2022-12-10T13:19:35;2.70;;;1.70;;
20000;SDS011;10161;41.188;-8.642;2022-12-10T13:22:04;5.47;;;1.60;;
20000;SDS011;10161;41.188;-8.642;2022-12-10T13:24:47;3.80;;;1.80;;
20000;SDS011;10161;41.188;-8.642;2022-12-10T13:27:30;4.90;;;2.10;;
20000;SDS011;10161;41.188;-8.642;2022-12-10T13:30:00;5.33;;;2.03;;
20000;SDS011;10161;41.188;-8.642;2022-12-10T13:32:42;3.03;;;1.60;;
20000;SDS011;10161;41.188;-8.642;2022-12-10T13:35:28;3.03;;;1.67;;
20000;SDS011;10161;41.188;-8.642;2022-12-10T13:37:57;3.27;;;1.70;;
20000;SDS011;10161;41.188;-8.642;2022-12-10T13:40:39;7.30;;;1.93;;
20000;SDS011;10161;41.188;-8.642;2022-12-10T13:43:26;4.03;;;1.70;;
20000;SDS011;10161;41.188;-8.642;2022-12-10T13:46:25;10.90;;;2.00;;
20000;SDS011;10161;41.188;-8.642;2022-12-10T13:48:55;4.10;;;1.87;;
20000;SDS011;10161;41.188;-8.642;2022-12-10T13:51:26;2.90;;;1.60;;
20000;SDS011;10161;41.188;-8.642;2022-12-10T13:54:33;2.27;;;1.70;;
20000;SDS011;10161;41.188;-8.642;2022-12-10T13:57:23;3.83;;;1.77;;
20000;SDS011;10161;41.188;-8.642;2022-12-10T13:59:59;4.57;;;1.60;;
20000;SDS011;10161;41.188;-8.642;2022-12-10T14:02:41;3.10;;;1.80;;
20000;SDS011;10161;41.188;-8.642;2022-12-10T14:05:38;3.30;;;1.53;;
20000;SDS011;10161;41.188;-8.642;2022-12-10T14:08:13;2.27;;;1.40;;
20000;SDS011;10161;41.188;-8.642;2022-12-10T14:10:43;3.10;;;1.70;;
20000;SDS011;10161;41.188;-8.642;2022-12-10T14:13:11;3.93;;;1.60;;
20000;SDS011;10161;41.188;-8.642;2022-12-10T14:15:39;3.30;;;1.70;;
20000;SDS011;10161;41.188;-8.642;2022-12-10T14:18:09;2.70;;;1.60;;
20000;SDS011;10161;41.188;-8.642;2022-12-10T14:20:38;3.27;;;1.77;;
20000;SDS011;10161;41.188;-8.642;2022-12-10T14:23:19;5.00;;;2.50;;
20000;SDS011;10161;41.188;-8.642;2022-12-10T14:26:03;2.67;;;1.50;;
20000;SDS011;10161;41.188;-8.642;2022-12-10T14:28:32;5.23;;;1.97;;
20000;SDS011;10161;41.188;-8.642;2022-12-10T14:30:59;1.77;;;1.40;;
20000;SDS011;10161;41.188;-8.642;2022-12-10T14:33:26;6.10;;;1.77;;
20000;SDS011;10161;41.188;-8.642;2022-12-10T14:35:53;3.37;;;2.30;;
20000;SDS011;10161;41.188;-8.642;2022-12-10T14:38:29;5.60;;;2.10;;
20000;SDS011;10161;41.188;-8.642;2022-12-10T14:40:57;2.53;;;1.63;;
20000;SDS011;10161;41.188;-8.642;2022-12-10T14:43:27;3.13;;;1.53;;
20000;SDS011;10161;41.188;-8.642;2022-12-10T14:46:00;2.43;;;1.63;;